Time;durP1;ratioP1;P1;durP2;ratioP2;P2;SDS_P1;SDS_P2;PMS_P1;PMS_P2;Temp;Humidity;BMP_temperature;BMP_pressure;BME280_temperature;BME280_humidity;BME280_pressure;Samples;Min_cycle;Max_cycle;Signal;HPM_P1;HPM_P2
2022/01/29 00:00:21;;;;;;;6.57;1.70;;;-0.10;99.90;;;;;;4193970;34;20259;-65
2022/01/29 00:02:50;;;;;;;7.10;2.00;;;-0.10;99.90;;;;;;4194010;34;20175;-65
2022/01/29 00:05:22;;;;;;;6.53;2.07;;;-0.10;99.90;;;;;;4194239;34;20172;-65
2022/01/29 00:08:07;;;;;;;3.47;2.00;;;-0.20;99.90;;;;;;4208003;34;20270;-66
2022/01/29 00:11:02;;;;;;;4.00;2.00;;;-0.20;99.90;;;;;;4290318;33;20159;-65
2022/01/29 00:13:38;;;;;;;4.73;2.10;;;-0.20;99.90;;;;;;4278906;33;20201;-65
2022/01/29 00:16:09;;;;;;;6.40;2.20;;;-0.20;99.90;;;;;;4290333;33;20176;-65
2022/01/29 00:18:59;;;;;;;5.33;1.97;;;-0.30;99.90;;;;;;4277826;33;20185;-65
2022/01/29 00:21:42;;;;;;;5.37;2.10;;;-0.30;99.90;;;;;;4318956;33;20152;-65
2022/01/29 00:24:48;;;;;;;5.47;2.50;;;-0.30;99.90;;;;;;4319863;33;20141;-66
2022/01/29 00:27:21;;;;;;;6.77;2.13;;;-0.30;99.90;;;;;;4307378;33;20177;-65
2022/01/29 00:30:16;;;;;;;7.27;2.10;;;-0.30;99.90;;;;;;4319179;33;20239;-67
2022/01/29 00:32:53;;;;;;;5.23;2.10;;;-0.30;99.90;;;;;;4311942;33;20421;-67
2022/01/29 00:35:23;;;;;;;6.03;2.60;;;-0.30;99.90;;;;;;4341777;32;20223;-67
2022/01/29 00:37:56;;;;;;;6.77;2.33;;;-0.30;99.90;;;;;;4367574;32;20182;-68
2022/01/29 00:40:31;;;;;;;8.13;3.10;;;-0.40;99.90;;;;;;4380275;32;20421;-67
2022/01/29 00:43:07;;;;;;;5.93;3.00;;;-0.40;99.90;;;;;;4378961;32;20174;-67
2022/01/29 00:45:40;;;;;;;9.23;3.07;;;-0.40;99.90;;;;;;4366735;32;20448;-67
2022/01/29 00:48:08;;;;;;;8.67;3.57;;;-0.40;99.90;;;;;;4366565;32;20432;-67
2022/01/29 00:50:35;;;;;;;8.80;4.27;;;-0.40;99.90;;;;;;4379984;32;20528;-67
2022/01/29 00:53:03;;;;;;;8.47;4.03;;;-0.40;99.90;;;;;;4366523;32;20179;-67
2022/01/29 00:55:31;;;;;;;9.90;4.43;;;-0.40;99.90;;;;;;4366886;32;20230;-67
2022/01/29 00:57:58;;;;;;;9.43;4.17;;;-0.40;99.90;;;;;;4366005;32;20570;-68
2022/01/29 01:00:26;;;;;;;8.77;4.27;;;-0.40;99.90;;;;;;4380460;32;20158;-67
2022/01/29 01:02:53;;;;;;;12.03;4.90;;;-0.50;99.90;;;;;;4366241;32;20211;-68
2022/01/29 01:05:21;;;;;;;11.47;4.53;;;-0.50;99.90;;;;;;4379782;32;20156;-67
2022/01/29 01:07:48;;;;;;;10.63;4.37;;;-0.50;99.90;;;;;;4380441;32;20192;-67
2022/01/29 01:10:17;;;;;;;10.83;4.40;;;-0.50;99.90;;;;;;4365538;32;20203;-68
2022/01/29 01:12:44;;;;;;;8.27;4.07;;;-0.50;99.90;;;;;;4365962;32;20191;-67
2022/01/29 01:15:12;;;;;;;10.10;4.33;;;-0.60;99.90;;;;;;4365288;32;20503;-67
2022/01/29 01:17:39;;;;;;;9.93;4.47;;;-0.60;99.90;;;;;;4365934;32;20174;-68
2022/01/29 01:20:07;;;;;;;8.53;4.47;;;-0.60;99.90;;;;;;4365833;32;20510;-68
2022/01/29 01:22:35;;;;;;;10.73;4.60;;;-0.60;99.90;;;;;;4379737;32;20139;-67
2022/01/29 01:25:03;;;;;;;11.90;4.20;;;-0.60;99.90;;;;;;4365823;32;20180;-68
2022/01/29 01:27:31;;;;;;;10.80;4.07;;;-0.60;99.90;;;;;;4378963;32;20417;-68
2022/01/29 01:29:58;;;;;;;11.27;4.30;;;-0.50;99.90;;;;;;4394649;32;20215;-67
2022/01/29 01:32:25;;;;;;;9.23;4.27;;;-0.60;99.90;;;;;;4383503;32;20424;-68
2022/01/29 01:34:56;;;;;;;10.63;4.23;;;-0.60;99.90;;;;;;4395084;32;20473;-67
2022/01/29 01:37:39;;;;;;;7.83;4.07;;;-0.60;99.90;;;;;;4395621;32;20280;-67
2022/01/29 01:40:08;;;;;;;7.83;4.30;;;-0.70;99.90;;;;;;4396534;32;20231;-68
2022/01/29 01:42:38;;;;;;;10.47;4.50;;;-0.70;99.90;;;;;;4409710;32;20220;-67
2022/01/29 01:45:06;;;;;;;10.63;4.33;;;-0.70;99.90;;;;;;4395394;32;20203;-68
2022/01/29 01:47:37;;;;;;;11.27;4.77;;;-0.70;99.90;;;;;;4395334;32;20213;-68
2022/01/29 01:50:11;;;;;;;10.37;4.50;;;-0.70;99.90;;;;;;4409501;32;20163;-68
2022/01/29 01:52:52;;;;;;;8.43;4.40;;;-0.70;99.90;;;;;;4350552;33;20606;-68
2022/01/29 01:55:22;;;;;;;9.13;4.67;;;-0.80;99.90;;;;;;4349832;33;20606;-68
2022/01/29 01:58:09;;;;;;;11.10;4.67;;;-0.80;99.90;;;;;;4349697;33;20195;-67
2022/01/29 02:00:40;;;;;;;10.97;4.97;;;-0.80;99.90;;;;;;4350004;33;20172;-67
2022/01/29 02:03:16;;;;;;;10.77;4.57;;;-0.80;99.90;;;;;;4349150;33;20502;-68
2022/01/29 02:09:20;;;;;;;11.73;4.47;;;-0.80;99.90;;;;;;4348826;33;20168;-68
2022/01/29 02:12:18;;;;;;;9.67;4.37;;;-0.80;99.90;;;;;;4344761;33;20176;-67
2022/01/29 02:14:59;;;;;;;10.90;4.50;;;-0.80;99.90;;;;;;4349428;33;20534;-68
2022/01/29 02:17:36;;;;;;;10.53;6.00;;;-0.80;99.90;;;;;;4349247;33;20601;-67
2022/01/29 02:20:20;;;;;;;11.03;5.30;;;-0.80;99.90;;;;;;4345235;33;20207;-67
2022/01/29 02:22:56;;;;;;;13.33;5.87;;;-0.80;99.90;;;;;;4349691;33;20572;-68
2022/01/29 02:26:25;;;;;;;12.00;5.57;;;-0.80;99.90;;;;;;4361453;33;20253;-67
2022/01/29 02:28:58;;;;;;;13.13;5.40;;;-0.80;99.90;;;;;;4349115;33;20559;-67
2022/01/29 02:32:16;;;;;;;14.70;6.13;;;-0.90;99.90;;;;;;4361104;33;20188;-67
2022/01/29 02:35:59;;;;;;;11.23;5.93;;;-0.90;99.90;;;;;;4355312;32;20217;-67
2022/01/29 02:38:39;;;;;;;12.40;5.77;;;-0.90;99.90;;;;;;4332675;33;20246;-68
2022/01/29 02:41:09;;;;;;;12.20;6.10;;;-0.90;99.90;;;;;;4333254;33;20178;-68
2022/01/29 02:43:47;;;;;;;11.20;5.70;;;-0.90;99.90;;;;;;4319563;33;20185;-67
2022/01/29 02:46:29;;;;;;;12.23;5.47;;;-0.90;99.90;;;;;;4320965;33;20405;-67
2022/01/29 02:48:57;;;;;;;15.40;6.07;;;-0.90;99.90;;;;;;4320775;33;20168;-67
2022/01/29 02:51:26;;;;;;;12.03;5.80;;;-1.00;99.90;;;;;;4320973;33;20257;-67
2022/01/29 02:53:53;;;;;;;12.73;5.40;;;-1.00;99.90;;;;;;4320638;33;20214;-67
2022/01/29 02:56:21;;;;;;;12.37;5.10;;;-1.00;99.90;;;;;;4320485;33;20270;-67
2022/01/29 02:58:49;;;;;;;9.93;4.47;;;-1.00;99.90;;;;;;4332995;33;20195;-67
2022/01/29 03:01:18;;;;;;;13.10;5.03;;;-1.00;99.90;;;;;;4331983;33;20195;-67
2022/01/29 03:03:45;;;;;;;11.10;4.63;;;-1.00;99.90;;;;;;4332245;33;20149;-68
2022/01/29 03:06:13;;;;;;;9.77;4.50;;;-1.10;99.90;;;;;;4331971;33;20189;-67
2022/01/29 03:08:41;;;;;;;10.77;4.67;;;-1.10;99.90;;;;;;4331669;33;20172;-68
2022/01/29 03:11:11;;;;;;;10.10;4.20;;;-1.10;99.90;;;;;;4331726;33;20161;-67
2022/01/29 03:13:38;;;;;;;13.47;4.60;;;-1.10;99.90;;;;;;4318466;33;20291;-67
2022/01/29 03:16:06;;;;;;;10.70;4.37;;;-1.10;99.90;;;;;;4383082;32;20232;-67
2022/01/29 03:18:34;;;;;;;8.07;4.03;;;-1.10;99.90;;;;;;4392284;32;20566;-67
2022/01/29 03:21:01;;;;;;;10.77;4.17;;;-1.10;99.90;;;;;;4395551;32;20249;-68
2022/01/29 03:23:29;;;;;;;12.20;3.90;;;-1.20;99.90;;;;;;4397143;32;20171;-67
2022/01/29 03:25:56;;;;;;;9.43;3.83;;;-1.20;99.90;;;;;;4397028;32;20182;-67
2022/01/29 03:28:24;;;;;;;9.47;4.00;;;-1.20;99.90;;;;;;4397611;32;20171;-67
2022/01/29 03:30:51;;;;;;;10.70;3.83;;;-1.20;99.90;;;;;;4397192;32;20225;-67
2022/01/29 03:33:19;;;;;;;8.03;3.67;;;-1.20;99.90;;;;;;4398396;32;20186;-68
2022/01/29 03:35:46;;;;;;;9.43;3.50;;;-1.20;99.90;;;;;;4397380;32;20232;-68
2022/01/29 03:38:14;;;;;;;10.93;3.80;;;-1.20;99.90;;;;;;4398150;32;20175;-67
2022/01/29 03:40:43;;;;;;;13.77;3.50;;;-1.20;99.90;;;;;;4412741;32;20436;-67
2022/01/29 03:43:14;;;;;;;8.57;3.30;;;-1.20;99.90;;;;;;4397167;32;20167;-67
2022/01/29 03:45:41;;;;;;;8.63;3.47;;;-1.20;99.90;;;;;;4411711;32;20167;-68
2022/01/29 03:55:11;;;;;;;8.47;3.17;;;-1.30;99.90;;;;;;4333956;33;20210;-67
2022/01/29 03:58:27;;;;;;;8.73;3.53;;;-1.30;99.90;;;;;;4332684;33;20173;-67
2022/01/29 04:02:01;;;;;;;9.53;3.80;;;-1.30;99.90;;;;;;4356818;32;20241;-67
2022/01/29 04:04:41;;;;;;;12.87;3.20;;;-1.30;99.90;;;;;;4362157;33;20230;-68
2022/01/29 04:07:12;;;;;;;10.87;3.70;;;-1.30;99.90;;;;;;4363346;32;20199;-67
2022/01/29 04:09:52;;;;;;;9.23;3.60;;;-1.30;99.90;;;;;;4350574;33;20176;-68
2022/01/29 04:12:25;;;;;;;8.13;3.57;;;-1.30;99.90;;;;;;4364411;32;20596;-68
2022/01/29 04:15:20;;;;;;;11.03;4.03;;;-1.20;99.90;;;;;;4356932;32;20188;-67
2022/01/29 04:18:02;;;;;;;11.40;4.40;;;-1.20;99.90;;;;;;4349894;33;20238;-67
2022/01/29 04:20:31;;;;;;;8.30;3.43;;;-1.20;99.90;;;;;;4351293;33;20174;-67
2022/01/29 04:23:18;;;;;;;7.73;3.50;;;-1.30;99.90;;;;;;4361822;33;20183;-67
2022/01/29 04:25:52;;;;;;;8.40;3.80;;;-1.30;99.90;;;;;;4350744;33;20195;-67
2022/01/29 04:28:47;;;;;;;8.40;3.83;;;-1.30;99.90;;;;;;4363540;32;20184;-67
2022/01/29 04:31:21;;;;;;;10.03;3.83;;;-1.30;99.90;;;;;;4365802;32;20213;-67
2022/01/29 04:33:49;;;;;;;8.67;3.53;;;-1.30;99.90;;;;;;4396507;32;20261;-67
2022/01/29 04:36:17;;;;;;;7.73;3.70;;;-1.30;99.90;;;;;;4396216;32;20175;-67
2022/01/29 04:38:49;;;;;;;7.90;3.53;;;-1.30;99.90;;;;;;4396611;32;20179;-67
2022/01/29 04:41:21;;;;;;;7.73;3.67;;;-1.30;99.90;;;;;;4396940;32;20198;-67
2022/01/29 04:43:54;;;;;;;12.47;4.20;;;-1.30;99.90;;;;;;4396254;32;20216;-67
2022/01/29 04:46:54;;;;;;;6.87;3.33;;;-1.30;99.90;;;;;;4397466;32;20191;-68
2022/01/29 04:49:36;;;;;;;6.43;3.40;;;-1.30;99.90;;;;;;4395884;32;20233;-67
2022/01/29 04:52:06;;;;;;;12.30;3.97;;;-1.40;99.90;;;;;;4396120;32;20175;-67
2022/01/29 04:54:34;;;;;;;10.07;3.87;;;-1.40;99.90;;;;;;4395865;32;20226;-67
2022/01/29 04:57:04;;;;;;;13.67;4.03;;;-1.40;99.90;;;;;;4396255;32;20171;-67
2022/01/29 04:59:32;;;;;;;13.70;4.07;;;-1.40;99.90;;;;;;4410243;32;20191;-68
2022/01/29 05:01:59;;;;;;;10.13;4.20;;;-1.30;99.90;;;;;;4408729;32;20253;-67
2022/01/29 05:04:27;;;;;;;12.50;3.90;;;-1.30;99.90;;;;;;4396001;32;20181;-68
2022/01/29 05:06:54;;;;;;;13.00;4.00;;;-1.40;99.90;;;;;;4395729;32;20197;-67
2022/01/29 05:09:22;;;;;;;9.23;3.87;;;-1.40;99.90;;;;;;4396052;32;20251;-67
2022/01/29 05:11:52;;;;;;;12.07;4.37;;;-1.40;99.90;;;;;;4395377;32;20229;-68
2022/01/29 05:14:34;;;;;;;8.87;4.10;;;-1.40;99.90;;;;;;4395656;32;20820;-67
2022/01/29 05:27:56;;;;;;;10.40;4.67;;;-1.40;99.90;;;;;;4395283;32;20216;-68
2022/01/29 05:30:26;;;;;;;11.60;4.00;;;-1.40;99.90;;;;;;4409717;32;20193;-67
2022/01/29 05:32:57;;;;;;;11.83;4.17;;;-1.40;99.90;;;;;;4392789;32;20201;-67
2022/01/29 05:35:24;;;;;;;11.43;4.17;;;-1.50;99.90;;;;;;4393439;32;20201;-67
2022/01/29 05:37:53;;;;;;;10.67;4.60;;;-1.50;99.90;;;;;;4394619;32;20253;-67
2022/01/29 05:40:20;;;;;;;9.23;4.47;;;-1.50;99.90;;;;;;4393932;32;20224;-67
2022/01/29 05:42:48;;;;;;;11.70;4.53;;;-1.50;99.90;;;;;;4392204;32;20176;-68
2022/01/29 05:45:15;;;;;;;11.80;4.40;;;-1.50;99.90;;;;;;4393705;32;20183;-68
2022/01/29 05:47:43;;;;;;;11.13;4.20;;;-1.50;99.90;;;;;;4393695;32;20179;-67
2022/01/29 05:50:13;;;;;;;11.03;4.50;;;-1.50;99.90;;;;;;4391996;32;20500;-67
2022/01/29 05:53:23;;;;;;;10.13;4.40;;;-1.50;99.90;;;;;;4392822;32;20568;-67
2022/01/29 05:57:27;;;;;;;;;;;;;;;;;;;;;
2022/01/29 06:13:26;;;;;;;6.57;4.10;;;-1.50;99.90;;;;;;4421695;32;20473;-66
2022/01/29 06:21:11;;;;;;;9.73;4.10;;;-1.50;99.90;;;;;;4310642;33;20190;-65
2022/01/29 06:24:23;;;;;;;11.37;4.20;;;-1.50;99.90;;;;;;4229874;34;20162;-65
2022/01/29 06:28:22;;;;;;;11.40;4.23;;;-1.50;99.90;;;;;;4187338;34;20206;-66
2022/01/29 06:31:38;;;;;;;13.07;4.57;;;-1.50;99.90;;;;;;4176783;34;20540;-65
2022/01/29 06:34:13;;;;;;;12.07;4.67;;;-1.60;99.90;;;;;;4176907;34;20179;-65
2022/01/29 06:45:03;;;;;;;9.80;4.37;;;-1.60;99.90;;;;;;4188007;34;20149;-66
2022/01/29 06:48:17;;;;;;;14.30;4.63;;;-1.50;99.90;;;;;;4106907;34;20220;-65
2022/01/29 06:50:53;;;;;;;8.57;4.40;;;-1.60;99.90;;;;;;4467664;32;20253;-66
2022/01/29 06:53:21;;;;;;;11.70;4.80;;;-1.50;99.90;;;;;;4450853;32;20170;-66
2022/01/29 06:55:48;;;;;;;10.17;5.00;;;-1.50;99.90;;;;;;4451153;32;20225;-66
2022/01/29 06:58:15;;;;;;;13.30;5.57;;;-1.50;99.90;;;;;;4453055;32;20445;-67
2022/01/29 07:01:03;;;;;;;11.43;5.10;;;-1.50;99.90;;;;;;4451449;32;20194;-66
2022/01/29 07:03:31;;;;;;;14.80;5.60;;;-1.50;99.90;;;;;;4451029;32;20197;-66
2022/01/29 07:05:59;;;;;;;17.20;5.27;;;-1.40;99.90;;;;;;4451083;32;20606;-66
2022/01/29 07:08:26;;;;;;;12.43;5.43;;;-1.40;99.90;;;;;;4451365;32;20596;-66
2022/01/29 07:10:54;;;;;;;17.27;5.40;;;-1.40;99.90;;;;;;4452880;32;20426;-66
2022/01/29 07:13:22;;;;;;;10.23;5.40;;;-1.40;99.90;;;;;;4445313;32;20215;-66
2022/01/29 07:15:51;;;;;;;16.97;5.73;;;-1.30;99.90;;;;;;4435855;32;20188;-68
2022/01/29 07:18:18;;;;;;;11.50;4.87;;;-1.30;99.90;;;;;;4436061;32;20166;-66
2022/01/29 07:20:47;;;;;;;14.73;5.30;;;-1.20;99.90;;;;;;4437304;32;20150;-66
2022/01/29 07:23:15;;;;;;;11.43;5.07;;;-1.20;99.90;;;;;;4436558;32;20210;-66
2022/01/29 07:25:43;;;;;;;12.80;4.77;;;-1.20;99.90;;;;;;4435707;32;20269;-66
2022/01/29 07:28:10;;;;;;;10.40;4.60;;;-1.10;99.90;;;;;;4435611;32;20178;-67
2022/01/29 07:30:38;;;;;;;13.00;5.10;;;-1.10;99.90;;;;;;4436736;32;20179;-66
2022/01/29 07:33:06;;;;;;;17.00;5.00;;;-1.00;99.90;;;;;;4435556;32;20174;-66
2022/01/29 07:35:34;;;;;;;11.93;5.13;;;-0.90;99.90;;;;;;4436090;32;20182;-67
2022/01/29 07:38:01;;;;;;;10.80;4.77;;;-0.90;99.90;;;;;;4435594;32;20170;-66
2022/01/29 07:40:29;;;;;;;13.13;5.00;;;-0.80;99.90;;;;;;4436439;32;20174;-67
2022/01/29 07:42:56;;;;;;;8.37;4.30;;;-0.80;99.90;;;;;;4436922;32;20189;-66
2022/01/29 07:45:23;;;;;;;12.07;4.93;;;-0.80;99.90;;;;;;4434675;32;20276;-67
2022/01/29 07:47:51;;;;;;;9.43;4.07;;;-0.80;99.90;;;;;;4436115;32;20166;-66
2022/01/29 07:51:11;;;;;;;12.13;4.23;;;-0.80;99.90;;;;;;4432053;32;20223;-66
2022/01/29 08:11:18;;;;;;;9.73;4.23;;;-0.20;99.90;;;;;;4233204;33;20530;-66
2022/01/29 08:18:49;;;;;;;;;;;;;;;;;;;;;
2022/01/29 08:22:10;;;;;;;11.47;4.50;;;0.70;99.90;;;;;;4233518;33;20163;-66
2022/01/29 08:40:18;;;;;;;10.53;4.37;;;1.40;99.90;;;;;;5299029;26;20181;-66
2022/01/29 08:51:13;;;;;;;15.50;4.87;;;2.70;99.90;;;;;;5055692;28;20154;-65
2022/01/29 08:53:41;;;;;;;11.77;5.07;;;2.90;99.90;;;;;;5059687;28;20121;-65
2022/01/29 08:56:08;;;;;;;14.83;5.40;;;2.90;99.90;;;;;;5043451;28;20156;-65
2022/01/29 08:58:34;;;;;;;13.90;5.10;;;3.10;99.90;;;;;;5042917;28;20142;-65
2022/01/29 09:01:00;;;;;;;12.37;5.60;;;3.00;99.90;;;;;;5042553;28;20148;-66
2022/01/29 09:03:27;;;;;;;16.87;5.70;;;2.80;99.90;;;;;;5042882;28;20165;-65
2022/01/29 09:05:53;;;;;;;12.87;4.80;;;2.50;99.90;;;;;;5059937;28;20186;-65
2022/01/29 09:08:20;;;;;;;17.07;5.47;;;2.30;99.90;;;;;;5026232;28;20179;-65
2022/01/29 09:10:48;;;;;;;13.37;5.23;;;2.10;99.90;;;;;;5043065;28;20599;-65
2022/01/29 09:13:14;;;;;;;14.17;5.30;;;1.90;99.90;;;;;;5026803;28;20422;-66
2022/01/29 09:15:46;;;;;;;15.43;5.57;;;1.90;99.90;;;;;;5045671;28;20443;-65
2022/01/29 09:18:28;;;;;;;13.53;5.53;;;1.80;99.90;;;;;;5062719;28;20153;-65
2022/01/29 09:21:12;;;;;;;20.00;5.80;;;1.90;99.90;;;;;;5063326;28;20417;-65
2022/01/29 09:23:59;;;;;;;19.07;6.27;;;2.00;99.90;;;;;;5133105;27;20543;-65
2022/01/29 09:26:29;;;;;;;17.60;5.77;;;2.00;99.90;;;;;;5267334;27;20595;-65
2022/01/29 09:29:05;;;;;;;19.63;5.80;;;2.10;99.90;;;;;;5335460;27;20385;-66
2022/01/29 09:31:33;;;;;;;17.03;6.00;;;2.30;99.90;;;;;;5334949;27;20520;-65
2022/01/29 09:34:00;;;;;;;18.50;5.60;;;2.40;99.90;;;;;;5334398;27;20427;-65
2022/01/29 09:36:29;;;;;;;16.63;5.43;;;2.50;99.90;;;;;;5333937;27;20191;-65
2022/01/29 09:38:56;;;;;;;16.17;5.27;;;2.50;99.90;;;;;;5332307;27;20219;-66
2022/01/29 09:41:26;;;;;;;20.20;5.60;;;2.50;99.90;;;;;;5329677;27;20160;-65
2022/01/29 09:43:55;;;;;;;19.20;5.90;;;2.40;99.90;;;;;;5331436;26;20118;-65
2022/01/29 09:46:32;;;;;;;15.20;5.43;;;2.50;99.90;;;;;;5330095;27;20196;-65
2022/01/29 09:49:00;;;;;;;15.47;5.77;;;2.40;99.90;;;;;;5329521;27;20147;-66
2022/01/29 09:51:27;;;;;;;21.03;5.73;;;2.40;99.90;;;;;;5330620;26;20105;-65
2022/01/29 09:53:55;;;;;;;17.53;5.93;;;2.40;99.90;;;;;;5330340;27;20586;-65
2022/01/29 09:56:28;;;;;;;19.07;5.93;;;2.40;99.90;;;;;;5331141;27;20133;-65
2022/01/29 10:00:03;;;;;;;20.17;6.03;;;2.50;99.90;;;;;;5330575;27;20553;-65
2022/01/29 10:03:10;;;;;;;15.77;5.60;;;2.50;99.90;;;;;;5312391;26;20455;-65
2022/01/29 10:05:38;;;;;;;19.23;6.33;;;2.50;99.90;;;;;;5329800;27;20157;-65
2022/01/29 10:08:07;;;;;;;21.30;6.37;;;2.60;99.90;;;;;;5329616;27;20195;-65
2022/01/29 10:10:39;;;;;;;16.53;6.07;;;2.70;99.90;;;;;;5327792;27;20387;-66
2022/01/29 10:13:38;;;;;;;15.23;5.67;;;2.80;99.90;;;;;;5330856;27;20145;-66
2022/01/29 10:16:20;;;;;;;18.73;5.87;;;2.80;99.90;;;;;;5332122;26;20184;-66
2022/01/29 10:19:11;;;;;;;19.43;6.20;;;2.90;99.90;;;;;;5328194;27;20145;-66
2022/01/29 10:21:53;;;;;;;19.83;6.27;;;3.00;99.90;;;;;;5329847;27;20209;-65
2022/01/29 10:24:24;;;;;;;21.90;6.33;;;3.00;99.90;;;;;;5329355;27;20209;-65
2022/01/29 10:26:51;;;;;;;22.53;6.00;;;3.10;99.90;;;;;;5329416;27;20157;-66
2022/01/29 10:29:20;;;;;;;20.10;6.07;;;3.10;99.90;;;;;;5328327;27;20146;-66
2022/01/29 10:32:26;;;;;;;19.87;6.13;;;3.30;99.90;;;;;;5328485;27;20197;-65
2022/01/29 10:34:59;;;;;;;18.50;6.00;;;3.30;99.90;;;;;;5329491;27;20511;-66
2022/01/29 10:37:35;;;;;;;21.27;6.07;;;3.30;99.90;;;;;;5328402;27;20230;-66
2022/01/29 10:40:16;;;;;;;17.07;5.80;;;3.40;99.90;;;;;;5327884;27;20177;-65
2022/01/29 10:43:17;;;;;;;19.27;5.87;;;3.60;99.90;;;;;;5327454;27;20273;-65
2022/01/29 10:45:45;;;;;;;17.43;5.70;;;3.70;99.90;;;;;;5329153;27;20152;-65
2022/01/29 10:48:43;;;;;;;24.47;7.73;;;3.80;99.90;;;;;;5327068;27;20193;-66
2022/01/29 10:51:12;;;;;;;14.77;5.53;;;4.00;99.90;;;;;;5329347;27;20152;-66
2022/01/29 10:53:42;;;;;;;20.90;5.60;;;3.90;99.90;;;;;;5328439;27;20179;-66
2022/01/29 10:56:09;;;;;;;16.87;5.43;;;3.80;99.90;;;;;;5330537;27;20488;-65
2022/01/29 10:58:43;;;;;;;18.13;5.10;;;3.80;99.90;;;;;;5329108;27;20168;-66
2022/01/29 11:01:24;;;;;;;19.13;5.80;;;3.90;99.90;;;;;;5329361;27;20152;-65
2022/01/29 11:03:54;;;;;;;16.87;5.40;;;3.80;99.90;;;;;;5328573;27;20133;-66
2022/01/29 11:06:35;;;;;;;17.27;4.60;;;3.80;99.90;;;;;;5330511;27;20143;-66
2022/01/29 11:09:08;;;;;;;24.17;5.00;;;4.00;99.90;;;;;;5331056;27;20191;-65
2022/01/29 11:11:36;;;;;;;18.83;4.90;;;4.10;99.90;;;;;;5328606;27;20242;-65
2022/01/29 11:14:20;;;;;;;13.90;4.50;;;4.20;99.90;;;;;;5329325;27;20149;-65
2022/01/29 11:17:24;;;;;;;17.73;5.00;;;4.30;99.90;;;;;;5329996;27;20141;-65
2022/01/29 11:20:07;;;;;;;15.53;4.63;;;4.30;99.90;;;;;;5244146;27;20481;-66
2022/01/29 11:22:40;;;;;;;19.00;5.03;;;4.50;99.90;;;;;;5244775;27;20131;-65
2022/01/29 11:25:39;;;;;;;16.87;4.47;;;4.40;99.90;;;;;;5259025;27;20435;-65
2022/01/29 11:28:19;;;;;;;14.90;4.80;;;4.40;99.90;;;;;;5243666;27;20540;-66
2022/01/29 11:31:16;;;;;;;20.57;5.27;;;4.40;99.90;;;;;;5227193;27;20170;-65
2022/01/29 11:33:59;;;;;;;22.67;4.80;;;4.30;99.90;;;;;;5244160;27;20201;-66
2022/01/29 11:37:11;;;;;;;17.73;4.80;;;4.10;99.90;;;;;;5243415;27;20173;-65
2022/01/29 11:39:42;;;;;;;13.30;4.57;;;4.00;99.90;;;;;;5243523;27;20160;-65
2022/01/29 11:43:14;;;;;;;16.47;5.57;;;3.80;99.90;;;;;;5261508;27;20517;-65
2022/01/29 11:50:00;;;;;;;17.87;4.60;;;3.90;99.90;;;;;;5154107;27;20158;-65
2022/01/29 11:56:44;;;;;;;18.80;4.60;;;3.80;99.90;;;;;;5198101;27;20152;-66
2022/01/29 11:59:23;;;;;;;17.80;5.23;;;3.90;99.90;;;;;;5197990;27;20139;-65
2022/01/29 12:02:21;;;;;;;16.70;5.37;;;3.80;99.90;;;;;;5196823;27;20123;-65
2022/01/29 12:04:54;;;;;;;19.50;5.97;;;3.80;99.90;;;;;;5176184;27;20167;-66
2022/01/29 12:07:34;;;;;;;17.90;4.87;;;3.70;99.90;;;;;;5176166;27;20152;-66
2022/01/29 12:10:14;;;;;;;23.83;5.83;;;3.70;99.90;;;;;;5175919;27;20136;-66
2022/01/29 12:12:46;;;;;;;23.47;6.10;;;3.60;99.90;;;;;;5178442;27;20186;-65
2022/01/29 12:15:21;;;;;;;16.70;6.33;;;3.70;99.90;;;;;;5176921;27;20187;-65
2022/01/29 12:17:57;;;;;;;16.70;5.37;;;3.60;99.90;;;;;;5196373;27;20153;-65
2022/01/29 12:20:26;;;;;;;22.67;6.00;;;3.60;99.90;;;;;;5198117;27;20409;-65
2022/01/29 12:23:10;;;;;;;18.93;6.60;;;3.60;99.90;;;;;;5198639;27;20190;-66
2022/01/29 12:25:38;;;;;;;21.43;6.67;;;3.60;99.90;;;;;;5197600;27;20137;-65
2022/01/29 12:28:07;;;;;;;21.20;6.27;;;3.70;99.90;;;;;;5198152;27;20154;-65
2022/01/29 12:30:37;;;;;;;19.07;6.37;;;3.60;99.90;;;;;;5236877;27;20142;-66
2022/01/29 12:33:10;;;;;;;20.43;6.50;;;3.50;99.90;;;;;;5240006;27;20351;-65
2022/01/29 12:35:42;;;;;;;18.07;6.80;;;3.40;99.90;;;;;;5241315;27;20150;-65
2022/01/29 12:38:12;;;;;;;17.43;6.00;;;3.30;99.90;;;;;;5240430;27;20147;-65
2022/01/29 12:41:03;;;;;;;24.20;7.40;;;3.20;99.90;;;;;;5242166;27;20158;-65
2022/01/29 12:43:36;;;;;;;18.50;6.87;;;3.20;99.90;;;;;;5328691;27;20133;-65
2022/01/29 12:46:12;;;;;;;16.53;6.50;;;3.20;99.90;;;;;;5327949;27;20141;-65
2022/01/29 12:48:41;;;;;;;23.93;6.83;;;3.20;99.90;;;;;;5328619;27;20144;-66
2022/01/29 12:51:11;;;;;;;22.03;7.30;;;3.20;99.90;;;;;;5328479;27;20179;-65
2022/01/29 12:54:44;;;;;;;22.30;6.70;;;3.10;99.90;;;;;;5328645;27;20164;-66
2022/01/29 12:56:48;;;;;;;20.77;6.70;;;3.00;99.90;;;;;;5324525;27;20149;-66
2022/01/29 12:59:16;;;;;;;20.87;6.77;;;3.00;99.90;;;;;;5330714;26;20098;-65
2022/01/29 13:01:45;;;;;;;20.33;6.90;;;2.90;99.90;;;;;;5328652;27;20149;-65
2022/01/29 13:04:17;;;;;;;20.73;6.17;;;2.90;99.90;;;;;;5329433;27;20153;-66
2022/01/29 13:06:46;;;;;;;20.43;6.97;;;2.90;99.90;;;;;;5329300;27;20117;-66
2022/01/29 13:09:21;;;;;;;20.37;6.70;;;2.80;99.90;;;;;;5329391;26;20132;-65
2022/01/29 13:12:05;;;;;;;23.27;7.50;;;2.80;99.90;;;;;;5328470;27;20141;-65
2022/01/29 13:14:33;;;;;;;21.60;6.97;;;2.70;99.90;;;;;;5330635;27;20471;-65
2022/01/29 13:17:25;;;;;;;22.63;7.67;;;2.70;99.90;;;;;;5329136;27;20482;-65
2022/01/29 13:19:56;;;;;;;19.13;6.87;;;2.60;99.90;;;;;;5329704;27;20146;-65
2022/01/29 13:22:26;;;;;;;18.43;7.07;;;2.50;99.90;;;;;;5329446;27;20195;-65
2022/01/29 13:25:02;;;;;;;24.73;7.47;;;2.40;99.90;;;;;;5329956;27;20133;-66
2022/01/29 13:27:33;;;;;;;26.30;8.13;;;2.40;99.90;;;;;;5330721;27;20172;-65
2022/01/29 13:30:21;;;;;;;26.87;8.27;;;2.30;99.90;;;;;;5329478;27;20137;-66
2022/01/29 13:32:50;;;;;;;25.47;8.57;;;2.30;99.90;;;;;;5329326;27;20152;-65
2022/01/29 13:35:20;;;;;;;29.80;7.83;;;2.20;99.90;;;;;;5332731;26;20459;-65
2022/01/29 13:37:50;;;;;;;23.57;8.40;;;2.20;99.90;;;;;;5329422;27;20527;-65
2022/01/29 13:40:19;;;;;;;22.03;8.37;;;2.20;99.90;;;;;;5330459;27;20184;-65
2022/01/29 13:42:58;;;;;;;25.57;8.57;;;2.10;99.90;;;;;;5308425;27;20213;-65
2022/01/29 13:45:25;;;;;;;26.67;8.67;;;2.10;99.90;;;;;;5328755;27;20186;-65
2022/01/29 13:48:03;;;;;;;19.67;7.70;;;2.10;99.90;;;;;;5329214;27;20542;-65
2022/01/29 13:50:45;;;;;;;24.93;8.77;;;2.10;99.90;;;;;;5330906;27;20137;-65
2022/01/29 13:53:15;;;;;;;26.33;9.23;;;2.10;99.90;;;;;;5328437;27;20137;-65
2022/01/29 13:56:01;;;;;;;22.67;9.03;;;2.10;99.90;;;;;;5330472;27;20156;-65
2022/01/29 13:58:46;;;;;;;28.57;8.97;;;2.10;99.90;;;;;;5331720;26;20114;-65
2022/01/29 14:01:15;;;;;;;23.20;9.13;;;2.00;99.90;;;;;;5330142;27;20149;-65
2022/01/29 14:03:52;;;;;;;24.03;8.37;;;2.00;99.90;;;;;;5328961;27;20160;-65
2022/01/29 14:06:54;;;;;;;26.17;9.10;;;2.00;99.90;;;;;;5325695;27;20141;-65
2022/01/29 14:09:36;;;;;;;19.10;8.63;;;2.00;99.90;;;;;;5331173;27;20187;-65
2022/01/29 14:12:31;;;;;;;24.87;8.30;;;1.90;99.90;;;;;;5328723;27;20153;-66
2022/01/29 14:15:06;;;;;;;24.97;9.03;;;1.90;99.90;;;;;;5328271;27;20156;-65
2022/01/29 14:17:36;;;;;;;28.03;8.60;;;1.90;99.90;;;;;;5329212;27;20160;-66
2022/01/29 14:20:12;;;;;;;21.67;9.07;;;1.90;99.90;;;;;;5328480;27;20148;-65
2022/01/29 14:22:45;;;;;;;25.23;8.53;;;1.80;99.90;;;;;;5328649;27;20196;-65
2022/01/29 14:25:19;;;;;;;24.60;8.93;;;1.80;99.90;;;;;;5330457;27;20157;-65
2022/01/29 14:27:48;;;;;;;26.07;9.40;;;1.80;99.90;;;;;;5328939;27;20151;-65
2022/01/29 14:30:15;;;;;;;27.73;9.07;;;1.80;99.90;;;;;;5330320;26;20114;-65
2022/01/29 14:32:43;;;;;;;24.93;8.83;;;1.80;99.90;;;;;;5328660;27;20141;-65
2022/01/29 14:35:13;;;;;;;21.73;8.77;;;1.90;99.90;;;;;;5329548;27;20149;-65
2022/01/29 14:37:41;;;;;;;24.57;9.50;;;1.80;99.90;;;;;;5327010;27;20156;-65
2022/01/29 14:40:12;;;;;;;25.37;9.50;;;1.80;99.90;;;;;;5330551;26;20222;-65
2022/01/29 14:42:44;;;;;;;22.23;9.07;;;1.80;99.90;;;;;;5329877;26;20129;-65
2022/01/29 14:45:15;;;;;;;21.20;9.27;;;1.80;99.90;;;;;;5328725;27;20201;-66
2022/01/29 14:47:47;;;;;;;22.20;8.57;;;1.80;99.90;;;;;;5331963;27;20133;-66
2022/01/29 14:50:17;;;;;;;19.57;8.40;;;1.80;99.90;;;;;;5330784;26;20153;-66
2022/01/29 14:52:45;;;;;;;20.57;8.97;;;1.70;99.90;;;;;;5328857;27;20169;-65
2022/01/29 14:55:13;;;;;;;19.13;8.73;;;1.70;99.90;;;;;;5329837;27;20133;-66
2022/01/29 14:57:43;;;;;;;21.83;8.90;;;1.70;99.90;;;;;;5328919;27;20149;-65
2022/01/29 15:00:18;;;;;;;22.87;8.83;;;1.60;99.90;;;;;;5328983;27;20160;-65
2022/01/29 15:02:45;;;;;;;21.27;8.83;;;1.60;99.90;;;;;;5331224;27;20102;-65
2022/01/29 15:05:22;;;;;;;21.90;8.57;;;1.60;99.90;;;;;;5329056;27;20141;-65
2022/01/29 15:07:50;;;;;;;18.67;9.27;;;1.50;99.90;;;;;;5328950;27;20148;-65
2022/01/29 15:10:24;;;;;;;17.47;8.70;;;1.50;99.90;;;;;;5328706;27;20156;-65
2022/01/29 15:12:52;;;;;;;21.43;9.50;;;1.40;99.90;;;;;;5328925;27;20155;-65
2022/01/29 15:15:19;;;;;;;19.77;8.93;;;1.40;99.90;;;;;;5328183;27;20148;-65